Hauptseite
METAR-TAF:

METAR-TAF

Flughäfen :

RAF Benson

Benson, England

Breite: 51-37N, Länge: 001-05W, Höhe: 63 m

Beobachtung

Neuester Wetterbericht von vor 44 Minuten, um 12:50 UTC
Wind 6 kt aus Südwest
Temperatur 21°C
Luftfeuchtigkeit 40%
Luftdruck 1015 hPa
Sichtweite 10 km oder mehr
keine Wolken unter 1500 m und keine Kumulonimbus oder Gewitterwolken

METAR: EGUB 231250Z 22006KT CAVOK 21/07 Q1015 BLU NOSIG

Zeit: 14:34 (13:34 UTC)

Prognose

Neuester Wetterbericht von vor 3 Stunden und 5 Minuten, um 10:29 UTC
Gültige Prognose vom 23 um 12 UTC bis 24 um 06 UTC
Wind 6 kt aus Südwest
Sichtweite 10 km oder mehr
keine Wolken unter 1500 m und keine Kumulonimbus oder Gewitterwolken

TAF: EGUB 231029Z 2312/2406 22006KT CAVOK

Wetterbeobachtungen und Prognosen von mehr als 4000 Flughäfen (METAR und TAF Bericht).

Die verfügbaren Stationen werden durch gelbe und rote Markierungen auf der Karte dargestellt.

Führen Sie die Maus auf sie, um den Namen der Station zu sehen.

Darauf klicken, um die Beobachtung von Wetterbeobachtungen und Prognosen zu sehen.

Um die Karte zu ändern : klicken Sie auf den grünen Tasten mit einem schwarzen Kreuz Zum Vergrößern, auf den grünen Button mit einem Gedankenstrich zu verkleinern, oder auf die grünen Pfeile für benachbarte Karten.


METAR-TAF: